createdAt,value
2023-03-19T00:01:04.406Z,101405.67
2023-03-19T00:02:18.266Z,101410.55
2023-03-19T00:03:21.589Z,101412.23
2023-03-19T00:04:26.285Z,101412.57
2023-03-19T00:05:29.580Z,101412.70
2023-03-19T00:06:32.670Z,101414.30
2023-03-19T00:07:35.944Z,101413.90
2023-03-19T00:08:38.917Z,101414.44
2023-03-19T00:09:42.760Z,101415.00
2023-03-19T00:10:45.634Z,101418.92
2023-03-19T00:11:49.045Z,101423.86
2023-03-19T00:12:52.243Z,101423.70
2023-03-19T00:13:55.184Z,101427.17
2023-03-19T00:14:58.094Z,101422.23
2023-03-19T00:16:01.351Z,101426.30
2023-03-19T00:17:04.399Z,101425.20
2023-03-19T00:18:08.663Z,101426.10
2023-03-19T00:19:12.160Z,101424.61
2023-03-19T00:20:15.554Z,101424.47
2023-03-19T00:21:18.380Z,101422.70
2023-03-19T00:22:21.835Z,101419.61
2023-03-19T00:23:24.808Z,101423.26
2023-03-19T00:24:29.034Z,101422.91
2023-03-19T00:25:32.805Z,101423.86
2023-03-19T00:26:36.607Z,101428.58
2023-03-19T00:27:39.568Z,101426.79
2023-03-19T00:28:42.715Z,101427.39
2023-03-19T00:29:45.731Z,101426.83
2023-03-19T00:30:48.785Z,101424.77
2023-03-19T00:31:51.717Z,101421.88
2023-03-19T00:32:54.712Z,101421.67
2023-03-19T00:33:59.253Z,101424.46
2023-03-19T00:35:02.356Z,101422.99
2023-03-19T00:36:06.950Z,101417.17
2023-03-19T00:37:10.041Z,101418.63
2023-03-19T00:38:12.932Z,101419.45
2023-03-19T00:39:15.921Z,101416.02
2023-03-19T00:40:19.088Z,101416.48
2023-03-19T00:41:22.840Z,101415.67
2023-03-19T00:42:26.208Z,101417.98
2023-03-19T00:43:29.156Z,101422.20
2023-03-19T00:44:32.155Z,101422.77
2023-03-19T00:45:35.334Z,101421.84
2023-03-19T00:46:38.357Z,101419.48
2023-03-19T00:47:42.196Z,101418.96
2023-03-19T00:48:45.180Z,101415.89
2023-03-19T00:49:48.499Z,101415.70
2023-03-19T00:50:51.659Z,101416.89
2023-03-19T00:51:54.513Z,101416.46
2023-03-19T00:52:57.350Z,101419.14
2023-03-19T00:54:00.262Z,101419.06
2023-03-19T00:55:03.251Z,101424.39
2023-03-19T00:56:07.748Z,101429.57
2023-03-19T00:57:10.946Z,101431.68
2023-03-19T00:58:13.802Z,101435.28
2023-03-19T00:59:16.613Z,101431.85
2023-03-19T01:00:20.291Z,101432.11
2023-03-19T01:01:23.395Z,101433.66
2023-03-19T01:02:26.472Z,101433.33
2023-03-19T01:03:30.886Z,101432.88
2023-03-19T01:04:33.938Z,101430.98
2023-03-19T01:06:39.831Z,101435.09
2023-03-19T01:07:42.834Z,101434.73
2023-03-19T01:08:45.733Z,101436.38
2023-03-19T01:09:48.561Z,101434.31
2023-03-19T01:10:51.708Z,101437.19
2023-03-19T01:11:54.630Z,101436.94
2023-03-19T01:12:57.675Z,101434.67
2023-03-19T01:14:00.516Z,101435.31
2023-03-19T01:15:05.051Z,101437.76
2023-03-19T01:16:08.677Z,101435.38
2023-03-19T01:17:12.090Z,101438.79
2023-03-19T01:18:15.301Z,101437.31
2023-03-19T01:19:18.373Z,101436.81
2023-03-19T01:20:24.145Z,101437.12
2023-03-19T01:21:31.060Z,101439.95
2023-03-19T01:22:36.846Z,101441.45
2023-03-19T01:23:41.021Z,101438.59
2023-03-19T01:24:44.600Z,101442.91
2023-03-19T01:25:47.736Z,101442.09
2023-03-19T01:26:51.050Z,101443.04
2023-03-19T01:28:10.475Z,101444.79
2023-03-19T01:29:15.221Z,101446.40
2023-03-19T01:31:56.339Z,101447.11
2023-03-19T01:33:35.262Z,101449.80
2023-03-19T01:34:45.155Z,101448.08
2023-03-19T01:35:51.636Z,101446.66
2023-03-19T01:36:56.047Z,101449.05
2023-03-19T01:38:05.812Z,101444.24
2023-03-19T01:39:09.312Z,101449.09
2023-03-19T01:40:14.273Z,101448.98
2023-03-19T01:41:17.334Z,101446.55
2023-03-19T01:42:20.645Z,101443.77
2023-03-19T01:43:43.840Z,101445.91
2023-03-19T01:45:31.681Z,101444.27
2023-03-19T01:46:55.780Z,101440.80
2023-03-19T01:48:28.389Z,101438.61
2023-03-19T01:49:40.536Z,101443.52
2023-03-19T01:50:57.918Z,101441.63
2023-03-19T01:52:07.376Z,101441.16
2023-03-19T01:53:21.236Z,101443.38
2023-03-19T01:54:34.604Z,101442.67
2023-03-19T01:56:09.088Z,101446.20
2023-03-19T01:57:25.581Z,101450.45
2023-03-19T01:58:49.700Z,101452.77
2023-03-19T02:00:05.014Z,101454.52
2023-03-19T02:01:20.720Z,101452.71
2023-03-19T02:02:24.046Z,101453.46
2023-03-19T02:03:27.362Z,101455.54
2023-03-19T02:04:43.501Z,101456.23
2023-03-19T02:05:49.424Z,101459.08
2023-03-19T02:06:57.240Z,101453.80
2023-03-19T02:08:05.257Z,101452.73
2023-03-19T02:09:09.452Z,101454.57
2023-03-19T02:10:16.999Z,101455.92
2023-03-19T02:11:21.939Z,101453.80
2023-03-19T02:12:24.916Z,101452.92
2023-03-19T02:13:28.291Z,101453.73
2023-03-19T02:14:31.600Z,101449.33
2023-03-19T02:15:34.639Z,101451.66
2023-03-19T02:16:37.740Z,101449.52
2023-03-19T02:17:42.338Z,101452.44
2023-03-19T02:18:45.707Z,101453.86
2023-03-19T02:19:51.637Z,101451.20
2023-03-19T02:21:05.678Z,101453.48
2023-03-19T02:22:11.990Z,101448.04
2023-03-19T02:23:34.889Z,101450.70
2023-03-19T02:24:58.870Z,101452.77
2023-03-19T02:26:07.817Z,101451.73
2023-03-19T02:27:11.742Z,101446.77
2023-03-19T02:28:22.347Z,101442.98
2023-03-19T02:29:26.132Z,101445.67
2023-03-19T02:30:33.717Z,101445.33
2023-03-19T02:31:41.046Z,101449.33
2023-03-19T02:32:44.672Z,101449.94
2023-03-19T02:34:20.109Z,101448.56
2023-03-19T02:35:23.091Z,101447.09
2023-03-19T02:36:31.872Z,101445.96
2023-03-19T02:37:34.981Z,101446.27
2023-03-19T02:38:39.018Z,101444.35
2023-03-19T02:39:47.702Z,101441.20
2023-03-19T02:40:59.695Z,101446.17
2023-03-19T02:42:04.321Z,101444.21
2023-03-19T02:43:07.375Z,101441.60
2023-03-19T02:44:12.311Z,101444.11
2023-03-19T02:45:15.892Z,101445.02
2023-03-19T02:46:18.730Z,101442.76
2023-03-19T02:47:21.742Z,101443.15
2023-03-19T02:48:25.264Z,101443.83
2023-03-19T02:49:28.093Z,101443.77
2023-03-19T02:50:31.189Z,101444.66
2023-03-19T02:51:34.113Z,101444.11
2023-03-19T02:52:37.181Z,101444.43
2023-03-19T02:53:40.121Z,101442.20
2023-03-19T02:54:42.982Z,101444.39
2023-03-19T02:55:45.914Z,101445.83
2023-03-19T02:56:49.141Z,101447.02
2023-03-19T02:57:52.074Z,101442.27
2023-03-19T02:58:55.103Z,101445.92
2023-03-19T02:59:58.549Z,101444.27
2023-03-19T03:01:01.574Z,101443.50
2023-03-19T03:02:07.006Z,101444.17
2023-03-19T03:03:09.974Z,101443.96
2023-03-19T03:04:15.130Z,101438.58
2023-03-19T03:05:18.545Z,101439.02
2023-03-19T03:06:21.644Z,101438.54
2023-03-19T03:07:24.516Z,101439.23
2023-03-19T03:08:28.408Z,101439.53
2023-03-19T03:09:31.384Z,101443.96
2023-03-19T03:10:35.318Z,101441.30
2023-03-19T03:11:43.333Z,101445.36
2023-03-19T03:12:46.675Z,101441.97
2023-03-19T03:13:49.881Z,101445.73
2023-03-19T03:14:52.704Z,101445.65
2023-03-19T03:15:55.598Z,101446.48
2023-03-19T03:16:58.737Z,101448.00
2023-03-19T03:18:01.708Z,101449.55
2023-03-19T03:19:06.014Z,101446.86
2023-03-19T03:20:11.551Z,101444.80
2023-03-19T03:21:14.494Z,101448.89
2023-03-19T03:22:17.507Z,101446.95
2023-03-19T03:23:22.081Z,101444.91
2023-03-19T03:24:25.171Z,101446.73
2023-03-19T03:25:28.435Z,101444.21
2023-03-19T03:26:31.765Z,101445.74
2023-03-19T03:27:34.963Z,101446.23
2023-03-19T03:28:38.030Z,101449.73
2023-03-19T03:29:41.663Z,101448.86
2023-03-19T03:30:45.269Z,101450.39
2023-03-19T03:31:48.207Z,101450.42
2023-03-19T03:32:51.992Z,101452.00
2023-03-19T03:33:54.916Z,101451.68
2023-03-19T03:34:57.873Z,101454.84
2023-03-19T03:36:01.282Z,101457.52
2023-03-19T03:37:04.080Z,101460.10
2023-03-19T03:38:06.919Z,101461.01
2023-03-19T03:39:09.845Z,101462.66
2023-03-19T03:40:14.402Z,101463.03
2023-03-19T03:41:17.452Z,101464.69
2023-03-19T03:42:21.145Z,101461.70
2023-03-19T03:43:25.553Z,101462.25
2023-03-19T03:44:28.497Z,101464.19
2023-03-19T03:45:31.476Z,101464.65
2023-03-19T03:46:34.590Z,101465.16
2023-03-19T03:47:37.752Z,101462.79
2023-03-19T03:48:41.192Z,101464.02
2023-03-19T03:49:45.716Z,101463.89
2023-03-19T03:50:49.297Z,101463.06
2023-03-19T03:51:54.449Z,101464.22
2023-03-19T03:52:57.464Z,101463.66
2023-03-19T03:54:00.459Z,101458.95
2023-03-19T03:55:03.568Z,101464.36
2023-03-19T03:56:06.909Z,101465.15
2023-03-19T03:57:10.005Z,101465.28
2023-03-19T03:58:13.217Z,101460.67
2023-03-19T03:59:16.574Z,101466.38
2023-03-19T04:00:20.185Z,101459.48
2023-03-19T04:01:23.185Z,101458.70
2023-03-19T04:02:28.179Z,101458.70
2023-03-19T04:03:31.419Z,101460.40
2023-03-19T04:04:34.346Z,101456.13
2023-03-19T04:05:38.029Z,101458.19
2023-03-19T04:06:41.564Z,101457.56
2023-03-19T04:08:13.985Z,101458.59
2023-03-19T04:09:17.298Z,101456.30
2023-03-19T04:10:20.431Z,101456.67
2023-03-19T04:11:23.636Z,101456.90
2023-03-19T04:12:27.024Z,101458.77
2023-03-19T04:13:31.637Z,101457.44
2023-03-19T04:14:34.482Z,101458.19
2023-03-19T04:15:37.758Z,101458.71
2023-03-19T04:16:44.345Z,101459.85
2023-03-19T04:17:47.408Z,101459.69
2023-03-19T04:18:50.712Z,101463.32
2023-03-19T04:19:54.359Z,101464.84
2023-03-19T04:20:57.888Z,101462.94
2023-03-19T04:22:00.968Z,101462.90
2023-03-19T04:23:04.238Z,101464.05
2023-03-19T04:24:07.370Z,101462.15
2023-03-19T04:25:10.928Z,101459.84
2023-03-19T04:26:14.235Z,101462.89
2023-03-19T04:27:17.187Z,101459.48
2023-03-19T04:28:20.370Z,101462.57
2023-03-19T04:29:23.833Z,101461.04
2023-03-19T04:30:27.734Z,101461.73
2023-03-19T04:31:31.511Z,101467.68
2023-03-19T04:32:35.852Z,101467.09
2023-03-19T04:33:39.167Z,101464.63
2023-03-19T04:34:42.953Z,101464.16
2023-03-19T04:35:45.912Z,101464.27
2023-03-19T04:36:50.036Z,101465.92
2023-03-19T04:37:53.035Z,101464.09
2023-03-19T04:38:57.186Z,101466.08
2023-03-19T04:40:01.070Z,101465.15
2023-03-19T04:41:05.814Z,101467.50
2023-03-19T04:42:11.483Z,101465.41
2023-03-19T04:43:30.244Z,101468.81
2023-03-19T04:44:34.089Z,101468.61
2023-03-19T04:45:37.757Z,101467.61
2023-03-19T04:46:42.153Z,101464.40
2023-03-19T04:47:45.380Z,101466.02
2023-03-19T04:48:48.988Z,101468.84
2023-03-19T04:49:52.750Z,101469.16
2023-03-19T04:50:57.454Z,101465.46
2023-03-19T04:52:01.712Z,101462.52
2023-03-19T04:53:04.729Z,101463.96
2023-03-19T04:54:08.055Z,101460.63
2023-03-19T04:55:11.256Z,101459.85
2023-03-19T04:56:29.655Z,101459.42
2023-03-19T04:57:32.802Z,101456.20
2023-03-19T04:58:36.535Z,101456.27
2023-03-19T04:59:39.836Z,101459.52
2023-03-19T05:00:46.868Z,101460.31
2023-03-19T05:01:53.040Z,101462.88
2023-03-19T05:02:58.643Z,101461.64
2023-03-19T05:04:03.423Z,101464.46
2023-03-19T05:05:08.088Z,101461.58
2023-03-19T05:06:11.930Z,101460.24
2023-03-19T05:07:15.066Z,101455.75
2023-03-19T05:08:18.361Z,101454.94
2023-03-19T05:09:21.831Z,101455.05
2023-03-19T05:10:25.116Z,101451.55
2023-03-19T05:11:28.411Z,101453.24
2023-03-19T05:12:44.124Z,101452.77
2023-03-19T05:13:47.504Z,101453.41
2023-03-19T05:14:50.442Z,101450.61
2023-03-19T05:15:57.001Z,101457.94
2023-03-19T05:17:00.602Z,101458.60
2023-03-19T05:18:08.766Z,101456.17
2023-03-19T05:19:30.021Z,101454.58
2023-03-19T05:20:33.135Z,101455.55
2023-03-19T05:21:41.007Z,101455.98
2023-03-19T05:22:44.205Z,101454.55
2023-03-19T05:23:47.134Z,101453.46
2023-03-19T05:24:51.577Z,101456.57
2023-03-19T05:25:54.715Z,101454.28
2023-03-19T05:27:04.733Z,101457.02
2023-03-19T05:28:08.935Z,101459.47
2023-03-19T05:29:11.996Z,101458.65
2023-03-19T05:30:27.926Z,101462.75
2023-03-19T05:31:41.854Z,101462.27
2023-03-19T05:32:47.051Z,101459.80
2023-03-19T05:34:10.558Z,101459.23
2023-03-19T05:35:14.378Z,101458.19
2023-03-19T05:36:18.178Z,101460.19
2023-03-19T05:37:44.253Z,101465.41
2023-03-19T05:38:47.334Z,101465.39
2023-03-19T05:39:54.849Z,101464.54
2023-03-19T05:41:04.239Z,101466.77
2023-03-19T05:42:12.810Z,101466.84
2023-03-19T05:43:15.697Z,101467.51
2023-03-19T05:44:19.509Z,101470.20
2023-03-19T05:45:39.782Z,101471.09
2023-03-19T05:46:49.711Z,101471.48
2023-03-19T05:47:53.936Z,101472.42
2023-03-19T05:48:57.503Z,101475.02
2023-03-19T05:50:00.891Z,101476.86
2023-03-19T05:51:04.660Z,101474.08
2023-03-19T05:52:14.479Z,101476.01
2023-03-19T05:53:17.474Z,101475.90
2023-03-19T05:54:27.232Z,101475.48
2023-03-19T05:55:46.650Z,101476.70
2023-03-19T05:56:50.077Z,101478.85
2023-03-19T05:58:08.077Z,101478.15
2023-03-19T05:59:11.943Z,101478.08
2023-03-19T06:00:18.273Z,101479.14
2023-03-19T06:01:23.780Z,101478.70
2023-03-19T06:02:27.474Z,101477.69
2023-03-19T06:03:36.248Z,101482.52
2023-03-19T06:04:42.859Z,101484.27
2023-03-19T06:05:49.952Z,101484.29
2023-03-19T06:07:00.162Z,101488.11
2023-03-19T06:08:03.277Z,101486.42
2023-03-19T06:09:25.120Z,101485.82
2023-03-19T06:10:32.136Z,101483.75
2023-03-19T06:11:36.779Z,101480.38
2023-03-19T06:13:00.021Z,101481.80
2023-03-19T06:14:14.013Z,101482.58
2023-03-19T06:15:18.635Z,101479.16
2023-03-19T06:16:21.721Z,101480.92
2023-03-19T06:17:31.442Z,101481.91
2023-03-19T06:18:38.358Z,101477.11
2023-03-19T06:19:44.961Z,101476.32
2023-03-19T06:20:48.320Z,101475.65
2023-03-19T06:21:52.699Z,101474.92
2023-03-19T06:22:55.544Z,101476.29
2023-03-19T06:23:59.246Z,101473.89
2023-03-19T06:25:07.794Z,101476.23
2023-03-19T06:26:12.491Z,101477.50
2023-03-19T06:27:27.465Z,101482.13
2023-03-19T06:28:42.689Z,101482.83
2023-03-19T06:29:45.779Z,101483.58
2023-03-19T06:30:59.281Z,101481.96
2023-03-19T06:32:22.050Z,101486.71
2023-03-19T06:33:32.269Z,101483.65
2023-03-19T06:34:36.512Z,101486.81
2023-03-19T06:35:39.665Z,101489.50
2023-03-19T06:36:42.894Z,101488.38
2023-03-19T06:37:47.640Z,101489.75
2023-03-19T06:38:51.194Z,101489.07
2023-03-19T06:39:54.860Z,101485.65
2023-03-19T06:40:58.097Z,101489.95
2023-03-19T06:42:03.907Z,101490.66
2023-03-19T06:43:08.854Z,101488.83
2023-03-19T06:44:12.199Z,101491.07
2023-03-19T06:45:16.603Z,101489.80
2023-03-19T06:46:19.708Z,101489.81
2023-03-19T06:47:23.164Z,101491.54
2023-03-19T06:48:26.034Z,101489.04
2023-03-19T06:49:29.157Z,101490.73
2023-03-19T06:50:33.528Z,101488.56
2023-03-19T06:51:37.271Z,101488.77
2023-03-19T06:52:41.027Z,101490.56
2023-03-19T06:53:43.975Z,101493.11
2023-03-19T06:54:47.208Z,101490.41
2023-03-19T06:55:50.398Z,101491.46
2023-03-19T06:56:53.481Z,101492.64
2023-03-19T06:57:57.022Z,101495.48
2023-03-19T06:59:00.252Z,101492.67
2023-03-19T07:00:06.150Z,101493.10
2023-03-19T07:01:09.625Z,101493.25
2023-03-19T07:02:13.068Z,101498.55
2023-03-19T07:03:16.422Z,101496.98
2023-03-19T07:04:19.713Z,101501.74
2023-03-19T07:05:23.300Z,101501.44
2023-03-19T07:06:26.732Z,101504.95
2023-03-19T07:07:29.823Z,101503.69
2023-03-19T07:08:33.593Z,101507.96
2023-03-19T07:09:37.153Z,101510.80
2023-03-19T07:10:40.807Z,101511.27
2023-03-19T07:11:44.313Z,101511.30
2023-03-19T07:12:47.771Z,101510.08
2023-03-19T07:13:51.148Z,101514.30
2023-03-19T07:14:59.204Z,101512.63
2023-03-19T07:16:02.974Z,101512.80
2023-03-19T07:17:07.563Z,101513.91
2023-03-19T07:18:12.435Z,101519.17
2023-03-19T07:19:15.706Z,101518.62
2023-03-19T07:20:19.681Z,101520.39
2023-03-19T07:21:23.783Z,101518.27
2023-03-19T07:22:27.078Z,101517.20
2023-03-19T07:23:30.576Z,101516.73
2023-03-19T07:24:33.806Z,101517.43
2023-03-19T07:25:37.098Z,101519.40
2023-03-19T07:26:40.653Z,101518.21
2023-03-19T07:27:44.870Z,101519.69
2023-03-19T07:28:49.009Z,101522.02
2023-03-19T07:29:52.278Z,101520.09
2023-03-19T07:30:56.317Z,101521.70
2023-03-19T07:31:59.658Z,101521.29
2023-03-19T07:33:02.954Z,101522.50
2023-03-19T07:34:09.191Z,101524.43
2023-03-19T07:35:12.077Z,101522.42
2023-03-19T07:36:14.993Z,101519.45
2023-03-19T07:37:20.137Z,101524.80
2023-03-19T07:38:24.306Z,101523.51
2023-03-19T07:39:28.442Z,101520.66
2023-03-19T07:40:32.152Z,101521.52
2023-03-19T07:41:35.576Z,101520.11
2023-03-19T07:42:38.766Z,101521.60
2023-03-19T07:43:42.474Z,101520.84
2023-03-19T07:44:45.579Z,101521.11
2023-03-19T07:45:48.759Z,101520.54
2023-03-19T07:46:52.120Z,101521.70
2023-03-19T07:47:56.445Z,101519.11
2023-03-19T07:48:59.577Z,101517.17
2023-03-19T07:50:02.706Z,101517.08
2023-03-19T07:51:07.445Z,101515.86
2023-03-19T07:52:14.350Z,101516.72
2023-03-19T07:53:17.568Z,101514.42
2023-03-19T07:54:20.588Z,101514.07
2023-03-19T07:55:23.843Z,101514.85
2023-03-19T07:56:26.762Z,101514.72
2023-03-19T07:57:29.946Z,101511.67
2023-03-19T07:58:33.336Z,101516.17
2023-03-19T07:59:36.446Z,101514.81
2023-03-19T08:00:42.857Z,101518.46
2023-03-19T08:01:48.440Z,101520.60
2023-03-19T08:02:51.602Z,101517.41
2023-03-19T08:03:54.891Z,101517.38
2023-03-19T08:04:58.617Z,101519.00
2023-03-19T08:06:01.591Z,101518.92
2023-03-19T08:07:04.873Z,101516.73
2023-03-19T08:08:08.086Z,101515.34
2023-03-19T08:09:11.619Z,101514.13
2023-03-19T08:10:18.236Z,101519.77
2023-03-19T08:11:25.530Z,101515.84
2023-03-19T08:12:30.542Z,101517.72
2023-03-19T08:13:35.261Z,101518.25
2023-03-19T08:14:42.999Z,101517.59
2023-03-19T08:15:48.067Z,101514.61
2023-03-19T08:16:51.949Z,101515.02
2023-03-19T08:18:00.498Z,101512.77
2023-03-19T08:19:04.176Z,101513.48
2023-03-19T08:20:10.153Z,101512.62
2023-03-19T08:21:13.276Z,101508.36
2023-03-19T08:22:17.252Z,101511.13
2023-03-19T08:23:20.875Z,101512.09
2023-03-19T08:24:24.244Z,101509.42
2023-03-19T08:25:27.788Z,101511.34
2023-03-19T08:26:32.932Z,101512.09
2023-03-19T08:27:36.697Z,101512.22
2023-03-19T08:28:39.986Z,101512.98
2023-03-19T08:29:43.031Z,101512.55
2023-03-19T08:30:46.278Z,101509.88
2023-03-19T08:31:49.424Z,101506.35
2023-03-19T08:32:52.711Z,101506.95
2023-03-19T08:33:56.525Z,101505.56
2023-03-19T08:34:59.446Z,101504.36
2023-03-19T08:36:11.955Z,101505.10
2023-03-19T08:37:14.999Z,101498.52
2023-03-19T08:38:18.556Z,101499.81
2023-03-19T08:39:21.776Z,101499.07
2023-03-19T08:40:25.345Z,101497.14
2023-03-19T08:41:28.288Z,101497.76
2023-03-19T08:42:31.593Z,101496.92
2023-03-19T08:43:36.875Z,101495.89
2023-03-19T08:44:40.072Z,101496.59
2023-03-19T08:45:43.692Z,101500.52
2023-03-19T08:46:47.055Z,101499.84
2023-03-19T08:47:50.386Z,101496.94
2023-03-19T08:48:53.807Z,101496.84
2023-03-19T08:49:57.101Z,101494.81
2023-03-19T08:51:03.045Z,101499.80
2023-03-19T08:52:06.576Z,101497.25
2023-03-19T08:53:09.495Z,101499.23
2023-03-19T08:54:13.900Z,101495.39
2023-03-19T08:55:18.110Z,101495.70
2023-03-19T08:56:21.197Z,101495.75
2023-03-19T08:57:24.137Z,101495.63
2023-03-19T08:58:28.265Z,101494.81
2023-03-19T08:59:34.083Z,101499.25
2023-03-19T09:00:37.365Z,101498.64
2023-03-19T09:01:40.903Z,101498.67
2023-03-19T09:02:43.919Z,101498.02
2023-03-19T09:03:47.062Z,101493.89
2023-03-19T09:04:49.980Z,101491.68
2023-03-19T09:05:53.213Z,101490.15
2023-03-19T09:06:56.157Z,101489.46
2023-03-19T09:07:59.272Z,101490.08
2023-03-19T09:09:02.594Z,101486.32
2023-03-19T09:10:06.236Z,101488.70
2023-03-19T09:11:10.548Z,101488.76
2023-03-19T09:12:16.745Z,101486.04
2023-03-19T09:13:19.926Z,101486.77
2023-03-19T09:14:23.173Z,101485.83
2023-03-19T09:15:27.066Z,101485.77
2023-03-19T09:16:31.316Z,101487.17
2023-03-19T09:17:34.455Z,101484.21
2023-03-19T09:18:37.379Z,101484.29
2023-03-19T09:19:40.965Z,101483.72
2023-03-19T09:20:44.043Z,101484.13
2023-03-19T09:21:47.108Z,101480.89
2023-03-19T09:22:49.946Z,101478.33
2023-03-19T09:23:52.966Z,101481.70
2023-03-19T09:24:55.832Z,101480.88
2023-03-19T09:25:59.199Z,101484.38
2023-03-19T09:27:03.079Z,101484.51
2023-03-19T09:28:06.961Z,101486.80
2023-03-19T09:29:09.891Z,101487.23
2023-03-19T09:30:13.400Z,101486.23
2023-03-19T09:31:16.631Z,101488.94
2023-03-19T09:32:19.845Z,101486.70
2023-03-19T09:33:22.862Z,101490.27
2023-03-19T09:34:25.892Z,101489.01
2023-03-19T09:35:31.346Z,101488.09
2023-03-19T09:36:38.039Z,101486.86
2023-03-19T09:37:41.390Z,101492.63
2023-03-19T09:38:44.357Z,101490.86
2023-03-19T09:39:47.185Z,101490.82
2023-03-19T09:41:07.184Z,101489.50
2023-03-19T09:42:18.944Z,101490.45
2023-03-19T09:43:39.667Z,101490.64
2023-03-19T09:44:45.638Z,101488.86
2023-03-19T09:45:48.979Z,101484.62
2023-03-19T09:47:13.162Z,101487.14
2023-03-19T09:48:23.284Z,101482.05
2023-03-19T09:49:30.050Z,101479.74
2023-03-19T09:50:38.133Z,101483.30
2023-03-19T09:51:49.079Z,101484.29
2023-03-19T09:53:31.262Z,101482.27
2023-03-19T09:54:43.296Z,101478.02
2023-03-19T09:55:52.558Z,101476.05
2023-03-19T09:56:56.037Z,101475.53
2023-03-19T09:58:01.003Z,101476.36
2023-03-19T09:59:03.942Z,101475.09
2023-03-19T10:00:22.475Z,101476.35
2023-03-19T10:01:37.257Z,101473.70
2023-03-19T10:02:42.807Z,101474.38
2023-03-19T10:04:10.902Z,101473.80
2023-03-19T10:05:20.353Z,101473.41
2023-03-19T10:06:42.169Z,101474.64
2023-03-19T10:07:51.042Z,101472.16
2023-03-19T10:08:58.960Z,101473.79
2023-03-19T10:10:30.283Z,101477.20
2023-03-19T10:12:06.106Z,101477.33
2023-03-19T10:13:20.152Z,101476.69
2023-03-19T10:14:38.290Z,101478.05
2023-03-19T10:15:44.716Z,101473.24
2023-03-19T10:16:52.082Z,101471.52
2023-03-19T10:18:13.625Z,101473.08
2023-03-19T10:19:24.525Z,101469.36
2023-03-19T10:20:35.214Z,101467.87
2023-03-19T10:21:47.024Z,101467.50
2023-03-19T10:23:13.281Z,101470.35
2023-03-19T10:24:32.002Z,101464.98
2023-03-19T10:25:41.470Z,101467.30
2023-03-19T10:26:45.876Z,101464.98
2023-03-19T10:27:56.661Z,101466.98
2023-03-19T10:29:14.762Z,101462.73
2023-03-19T10:30:19.479Z,101467.30
2023-03-19T10:31:26.006Z,101462.96
2023-03-19T10:32:44.086Z,101462.38
2023-03-19T10:34:23.551Z,101464.55
2023-03-19T10:35:56.170Z,101462.73
2023-03-19T10:37:07.940Z,101463.19
2023-03-19T10:38:22.767Z,101462.27
2023-03-19T10:39:25.785Z,101460.64
2023-03-19T10:40:37.260Z,101463.59
2023-03-19T10:41:45.378Z,101458.75
2023-03-19T10:43:16.735Z,101459.83
2023-03-19T10:44:33.348Z,101459.23
2023-03-19T10:45:39.026Z,101457.88
2023-03-19T10:46:42.364Z,101460.73
2023-03-19T10:47:45.271Z,101460.77
2023-03-19T10:48:48.569Z,101457.42
2023-03-19T10:49:52.460Z,101457.13
2023-03-19T10:50:55.250Z,101461.41
2023-03-19T10:51:58.648Z,101459.73
2023-03-19T10:53:25.348Z,101451.44
2023-03-19T10:54:30.496Z,101454.67
2023-03-19T10:55:34.420Z,101455.40
2023-03-19T10:56:46.611Z,101456.93
2023-03-19T10:57:51.706Z,101453.98
2023-03-19T10:59:01.388Z,101457.66
2023-03-19T11:00:18.005Z,101450.82
2023-03-19T11:01:21.250Z,101448.72
2023-03-19T11:02:31.105Z,101451.50
2023-03-19T11:03:49.454Z,101450.48
2023-03-19T11:05:22.031Z,101442.88
2023-03-19T11:06:38.946Z,101447.16
2023-03-19T11:07:41.930Z,101447.92
2023-03-19T11:08:55.978Z,101445.13
2023-03-19T11:09:59.259Z,101445.59
2023-03-19T11:11:02.613Z,101445.95
2023-03-19T11:12:19.638Z,101445.70
2023-03-19T11:13:27.198Z,101445.48
2023-03-19T11:14:35.813Z,101445.59
2023-03-19T11:15:39.475Z,101442.41
2023-03-19T11:16:54.283Z,101440.40
2023-03-19T11:18:06.803Z,101441.07
2023-03-19T11:19:20.433Z,101439.72
2023-03-19T11:20:29.275Z,101441.00
2023-03-19T11:21:33.011Z,101439.33
2023-03-19T11:22:37.996Z,101437.58
2023-03-19T11:23:42.086Z,101437.48
2023-03-19T11:24:57.376Z,101434.48
2023-03-19T11:26:04.166Z,101435.56
2023-03-19T11:27:11.684Z,101437.92
2023-03-19T11:28:20.991Z,101436.38
2023-03-19T11:29:28.251Z,101435.48
2023-03-19T11:30:46.608Z,101434.85
2023-03-19T11:32:21.589Z,101435.55
2023-03-19T11:33:47.831Z,101436.02
2023-03-19T11:35:02.366Z,101434.95
2023-03-19T11:36:12.063Z,101438.96
2023-03-19T11:37:39.262Z,101438.98
2023-03-19T11:38:54.100Z,101437.14
2023-03-19T11:40:20.409Z,101437.70
2023-03-19T11:41:41.947Z,101440.06
2023-03-19T11:42:47.826Z,101438.80
2023-03-19T11:43:57.537Z,101442.48
2023-03-19T11:45:17.568Z,101442.73
2023-03-19T11:46:34.503Z,101440.83
2023-03-19T11:47:59.668Z,101441.34
2023-03-19T11:49:05.467Z,101438.78
2023-03-19T11:50:30.453Z,101441.34
2023-03-19T11:52:00.822Z,101436.63
2023-03-19T11:53:03.575Z,101434.36
2023-03-19T11:54:31.742Z,101433.38
2023-03-19T11:55:43.594Z,101433.99
2023-03-19T11:56:55.905Z,101435.30
2023-03-19T11:58:20.104Z,101435.45
2023-03-19T11:59:40.289Z,101433.42
2023-03-19T12:00:57.290Z,101431.31
2023-03-19T12:02:19.211Z,101428.73
2023-03-19T12:03:38.231Z,101425.59
2023-03-19T12:05:16.453Z,101426.34
2023-03-19T12:06:25.423Z,101423.39
2023-03-19T12:07:47.049Z,101423.81
2023-03-19T12:09:12.644Z,101426.05
2023-03-19T12:10:33.611Z,101425.39
2023-03-19T12:11:54.660Z,101424.62
2023-03-19T12:13:15.356Z,101419.23
2023-03-19T12:14:30.275Z,101413.86
2023-03-19T12:16:02.866Z,101410.80
2023-03-19T12:17:45.951Z,101403.79
2023-03-19T12:19:11.714Z,101405.56
2023-03-19T12:20:17.947Z,101404.14
2023-03-19T12:21:40.552Z,101401.63
2023-03-19T12:22:55.339Z,101398.86
2023-03-19T12:24:04.553Z,101402.23
2023-03-19T12:25:26.503Z,101398.27
2023-03-19T12:26:54.521Z,101396.09
2023-03-19T12:28:45.962Z,101392.86
2023-03-19T12:30:02.035Z,101391.91
2023-03-19T12:31:37.427Z,101388.57
2023-03-19T12:32:43.521Z,101391.27
2023-03-19T12:33:57.692Z,101388.81
2023-03-19T12:35:11.851Z,101388.44
2023-03-19T12:36:28.207Z,101385.75
2023-03-19T12:37:45.253Z,101386.31
2023-03-19T12:38:51.809Z,101388.63
2023-03-19T12:40:15.199Z,101387.72
2023-03-19T12:41:24.854Z,101386.05
2023-03-19T12:42:33.937Z,101383.42
2023-03-19T12:43:54.097Z,101382.72
2023-03-19T12:44:59.546Z,101384.52
2023-03-19T12:46:10.491Z,101385.92
2023-03-19T12:47:26.939Z,101381.68
2023-03-19T12:48:39.406Z,101383.84
2023-03-19T12:49:52.407Z,101379.54
2023-03-19T12:51:00.027Z,101375.05
2023-03-19T12:52:24.024Z,101379.09
2023-03-19T12:53:43.520Z,101377.65